sensor_id;sensor_type;location;lat;lon;timestamp;P1;durP1;ratioP1;P2;durP2;ratioP2
16387;SDS011;8303;53.446;9.988;2022-10-31T05:49:43;57.67;;;24.67;;
16387;SDS011;8303;53.446;9.988;2022-10-31T05:52:10;50.63;;;24.90;;
16387;SDS011;8303;53.446;9.988;2022-10-31T05:54:37;50.10;;;22.83;;
16387;SDS011;8303;53.446;9.988;2022-10-31T05:57:03;48.07;;;22.80;;
16387;SDS011;8303;53.446;9.988;2022-10-31T05:59:30;51.60;;;22.93;;
16387;SDS011;8303;53.446;9.988;2022-10-31T06:01:57;50.50;;;22.73;;
16387;SDS011;8303;53.446;9.988;2022-10-31T06:04:24;53.13;;;21.93;;
16387;SDS011;8303;53.446;9.988;2022-10-31T06:06:52;50.37;;;22.27;;
16387;SDS011;8303;53.446;9.988;2022-10-31T06:09:19;42.20;;;21.23;;
16387;SDS011;8303;53.446;9.988;2022-10-31T06:11:45;44.33;;;21.30;;
16387;SDS011;8303;53.446;9.988;2022-10-31T06:14:12;42.83;;;20.27;;
16387;SDS011;8303;53.446;9.988;2022-10-31T06:16:39;50.73;;;21.53;;
16387;SDS011;8303;53.446;9.988;2022-10-31T06:19:06;56.20;;;21.77;;
16387;SDS011;8303;53.446;9.988;2022-10-31T06:21:33;47.10;;;21.83;;
16387;SDS011;8303;53.446;9.988;2022-10-31T06:24:01;45.20;;;20.37;;
16387;SDS011;8303;53.446;9.988;2022-10-31T06:26:27;50.93;;;21.70;;
16387;SDS011;8303;53.446;9.988;2022-10-31T06:28:54;48.60;;;22.40;;
16387;SDS011;8303;53.446;9.988;2022-10-31T06:31:21;52.70;;;22.53;;
16387;SDS011;8303;53.446;9.988;2022-10-31T06:33:48;48.73;;;19.30;;
16387;SDS011;8303;53.446;9.988;2022-10-31T06:36:15;45.93;;;21.13;;
16387;SDS011;8303;53.446;9.988;2022-10-31T06:38:41;38.13;;;18.07;;
16387;SDS011;8303;53.446;9.988;2022-10-31T06:41:09;49.33;;;21.70;;
16387;SDS011;8303;53.446;9.988;2022-10-31T06:43:36;44.53;;;20.03;;
16387;SDS011;8303;53.446;9.988;2022-10-31T06:46:03;40.87;;;19.10;;
16387;SDS011;8303;53.446;9.988;2022-10-31T06:48:31;46.63;;;21.13;;
16387;SDS011;8303;53.446;9.988;2022-10-31T06:50:58;38.83;;;19.13;;
16387;SDS011;8303;53.446;9.988;2022-10-31T06:53:25;47.63;;;21.67;;
16387;SDS011;8303;53.446;9.988;2022-10-31T06:55:52;45.73;;;20.97;;
16387;SDS011;8303;53.446;9.988;2022-10-31T06:58:20;42.90;;;21.97;;
16387;SDS011;8303;53.446;9.988;2022-10-31T07:00:47;48.80;;;22.07;;
16387;SDS011;8303;53.446;9.988;2022-10-31T07:03:14;59.00;;;23.97;;
16387;SDS011;8303;53.446;9.988;2022-10-31T07:05:41;54.23;;;24.27;;
16387;SDS011;8303;53.446;9.988;2022-10-31T07:08:10;47.33;;;23.00;;
16387;SDS011;8303;53.446;9.988;2022-10-31T07:10:39;47.83;;;23.27;;
16387;SDS011;8303;53.446;9.988;2022-10-31T07:13:09;50.90;;;22.53;;
16387;SDS011;8303;53.446;9.988;2022-10-31T07:15:39;53.70;;;23.50;;
16387;SDS011;8303;53.446;9.988;2022-10-31T07:18:08;48.23;;;23.27;;
16387;SDS011;8303;53.446;9.988;2022-10-31T07:20:36;49.53;;;22.73;;
16387;SDS011;8303;53.446;9.988;2022-10-31T07:23:03;62.03;;;23.60;;
16387;SDS011;8303;53.446;9.988;2022-10-31T07:25:30;54.40;;;24.47;;
16387;SDS011;8303;53.446;9.988;2022-10-31T07:27:56;56.67;;;24.33;;
16387;SDS011;8303;53.446;9.988;2022-10-31T07:30:23;56.20;;;26.03;;
16387;SDS011;8303;53.446;9.988;2022-10-31T07:32:51;52.77;;;23.17;;
16387;SDS011;8303;53.446;9.988;2022-10-31T07:35:19;54.67;;;23.33;;
16387;SDS011;8303;53.446;9.988;2022-10-31T07:37:47;49.17;;;23.53;;
16387;SDS011;8303;53.446;9.988;2022-10-31T07:40:14;52.13;;;23.97;;
16387;SDS011;8303;53.446;9.988;2022-10-31T07:42:42;54.03;;;23.57;;
16387;SDS011;8303;53.446;9.988;2022-10-31T07:45:10;53.33;;;24.27;;
16387;SDS011;8303;53.446;9.988;2022-10-31T07:47:38;54.23;;;23.60;;
16387;SDS011;8303;53.446;9.988;2022-10-31T07:50:07;55.33;;;25.13;;
16387;SDS011;8303;53.446;9.988;2022-10-31T07:52:34;48.20;;;24.37;;
16387;SDS011;8303;53.446;9.988;2022-10-31T07:55:01;61.03;;;24.93;;
16387;SDS011;8303;53.446;9.988;2022-10-31T07:57:28;54.03;;;24.30;;
16387;SDS011;8303;53.446;9.988;2022-10-31T07:59:55;51.63;;;24.80;;
16387;SDS011;8303;53.446;9.988;2022-10-31T08:02:22;58.60;;;25.13;;
16387;SDS011;8303;53.446;9.988;2022-10-31T08:04:49;56.90;;;24.50;;
16387;SDS011;8303;53.446;9.988;2022-10-31T08:07:17;59.87;;;25.60;;
16387;SDS011;8303;53.446;9.988;2022-10-31T08:09:44;58.67;;;26.07;;
16387;SDS011;8303;53.446;9.988;2022-10-31T08:12:11;49.77;;;24.57;;
16387;SDS011;8303;53.446;9.988;2022-10-31T08:14:38;54.20;;;23.80;;
16387;SDS011;8303;53.446;9.988;2022-10-31T08:17:04;56.40;;;24.67;;
16387;SDS011;8303;53.446;9.988;2022-10-31T08:19:31;56.77;;;27.83;;
16387;SDS011;8303;53.446;9.988;2022-10-31T08:21:58;58.17;;;27.90;;
16387;SDS011;8303;53.446;9.988;2022-10-31T08:24:26;63.63;;;28.90;;
16387;SDS011;8303;53.446;9.988;2022-10-31T08:26:53;72.83;;;31.80;;
16387;SDS011;8303;53.446;9.988;2022-10-31T08:29:20;77.03;;;32.80;;
16387;SDS011;8303;53.446;9.988;2022-10-31T08:31:46;74.67;;;33.13;;
16387;SDS011;8303;53.446;9.988;2022-10-31T08:34:13;74.27;;;31.13;;
16387;SDS011;8303;53.446;9.988;2022-10-31T08:36:40;64.03;;;29.60;;
16387;SDS011;8303;53.446;9.988;2022-10-31T08:39:09;57.73;;;29.57;;
16387;SDS011;8303;53.446;9.988;2022-10-31T08:41:37;54.73;;;26.67;;
16387;SDS011;8303;53.446;9.988;2022-10-31T08:44:04;58.80;;;26.63;;
16387;SDS011;8303;53.446;9.988;2022-10-31T08:46:31;63.50;;;29.27;;
16387;SDS011;8303;53.446;9.988;2022-10-31T08:48:58;63.40;;;28.87;;
16387;SDS011;8303;53.446;9.988;2022-10-31T08:51:24;74.97;;;30.50;;
16387;SDS011;8303;53.446;9.988;2022-10-31T08:53:51;61.27;;;28.63;;
16387;SDS011;8303;53.446;9.988;2022-10-31T08:56:18;70.83;;;29.00;;
16387;SDS011;8303;53.446;9.988;2022-10-31T08:58:46;70.70;;;31.60;;
16387;SDS011;8303;53.446;9.988;2022-10-31T09:01:13;72.03;;;31.03;;
16387;SDS011;8303;53.446;9.988;2022-10-31T09:03:40;72.17;;;30.27;;
16387;SDS011;8303;53.446;9.988;2022-10-31T09:06:06;66.47;;;30.73;;
16387;SDS011;8303;53.446;9.988;2022-10-31T09:08:34;66.83;;;30.07;;
16387;SDS011;8303;53.446;9.988;2022-10-31T09:11:01;63.60;;;29.37;;
16387;SDS011;8303;53.446;9.988;2022-10-31T09:13:28;61.30;;;28.70;;
16387;SDS011;8303;53.446;9.988;2022-10-31T09:15:57;58.93;;;28.40;;
16387;SDS011;8303;53.446;9.988;2022-10-31T09:18:24;62.03;;;28.00;;
16387;SDS011;8303;53.446;9.988;2022-10-31T09:20:53;56.80;;;26.13;;
16387;SDS011;8303;53.446;9.988;2022-10-31T09:23:20;56.67;;;25.77;;
16387;SDS011;8303;53.446;9.988;2022-10-31T09:25:49;54.03;;;24.90;;
16387;SDS011;8303;53.446;9.988;2022-10-31T09:28:17;48.07;;;24.47;;
16387;SDS011;8303;53.446;9.988;2022-10-31T09:30:45;43.33;;;22.27;;
16387;SDS011;8303;53.446;9.988;2022-10-31T09:33:15;41.40;;;22.50;;
16387;SDS011;8303;53.446;9.988;2022-10-31T09:35:43;40.10;;;20.53;;
16387;SDS011;8303;53.446;9.988;2022-10-31T09:38:11;38.23;;;20.03;;
16387;SDS011;8303;53.446;9.988;2022-10-31T09:40:40;35.37;;;20.67;;
16387;SDS011;8303;53.446;9.988;2022-10-31T09:43:12;35.50;;;19.70;;
16387;SDS011;8303;53.446;9.988;2022-10-31T09:45:45;40.50;;;20.37;;
16387;SDS011;8303;53.446;9.988;2022-10-31T09:48:34;31.27;;;18.57;;
16387;SDS011;8303;53.446;9.988;2022-10-31T09:51:17;34.30;;;18.27;;
16387;SDS011;8303;53.446;9.988;2022-10-31T09:53:48;36.97;;;17.90;;
16387;SDS011;8303;53.446;9.988;2022-10-31T09:56:18;29.33;;;17.00;;
16387;SDS011;8303;53.446;9.988;2022-10-31T09:58:47;32.53;;;17.77;;
16387;SDS011;8303;53.446;9.988;2022-10-31T10:01:25;34.57;;;18.50;;
16387;SDS011;8303;53.446;9.988;2022-10-31T10:03:58;36.07;;;20.60;;
16387;SDS011;8303;53.446;9.988;2022-10-31T10:06:28;34.33;;;19.97;;
16387;SDS011;8303;53.446;9.988;2022-10-31T10:08:58;27.40;;;15.40;;
16387;SDS011;8303;53.446;9.988;2022-10-31T10:11:42;30.67;;;16.70;;
16387;SDS011;8303;53.446;9.988;2022-10-31T10:14:25;30.63;;;16.23;;
16387;SDS011;8303;53.446;9.988;2022-10-31T10:17:05;26.23;;;15.57;;
16387;SDS011;8303;53.446;9.988;2022-10-31T10:20:00;26.40;;;15.73;;
16387;SDS011;8303;53.446;9.988;2022-10-31T10:22:46;22.33;;;12.93;;
16387;SDS011;8303;53.446;9.988;2022-10-31T10:25:19;23.90;;;13.77;;
16387;SDS011;8303;53.446;9.988;2022-10-31T10:27:50;20.23;;;13.20;;
16387;SDS011;8303;53.446;9.988;2022-10-31T10:30:28;21.37;;;12.73;;
16387;SDS011;8303;53.446;9.988;2022-10-31T10:33:02;23.60;;;12.37;;
16387;SDS011;8303;53.446;9.988;2022-10-31T10:35:35;21.07;;;12.50;;
16387;SDS011;8303;53.446;9.988;2022-10-31T10:38:09;22.13;;;13.10;;
16387;SDS011;8303;53.446;9.988;2022-10-31T10:40:41;32.40;;;16.03;;
16387;SDS011;8303;53.446;9.988;2022-10-31T10:43:17;26.07;;;13.80;;
16387;SDS011;8303;53.446;9.988;2022-10-31T10:45:49;18.43;;;11.07;;
16387;SDS011;8303;53.446;9.988;2022-10-31T10:48:41;19.83;;;11.60;;
16387;SDS011;8303;53.446;9.988;2022-10-31T10:51:15;21.87;;;12.37;;
16387;SDS011;8303;53.446;9.988;2022-10-31T10:53:49;26.17;;;14.87;;
16387;SDS011;8303;53.446;9.988;2022-10-31T10:56:31;35.83;;;19.33;;
16387;SDS011;8303;53.446;9.988;2022-10-31T10:59:08;34.57;;;20.33;;
16387;SDS011;8303;53.446;9.988;2022-10-31T11:01:38;32.43;;;19.40;;
16387;SDS011;8303;53.446;9.988;2022-10-31T11:04:08;32.63;;;20.53;;
16387;SDS011;8303;53.446;9.988;2022-10-31T11:06:57;30.70;;;18.53;;
16387;SDS011;8303;53.446;9.988;2022-10-31T11:09:28;31.30;;;17.03;;
16387;SDS011;8303;53.446;9.988;2022-10-31T11:11:55;28.40;;;16.30;;
16387;SDS011;8303;53.446;9.988;2022-10-31T11:14:24;25.13;;;13.87;;
16387;SDS011;8303;53.446;9.988;2022-10-31T11:16:53;15.55;;;9.70;;
16387;SDS011;8303;53.446;9.988;2022-10-31T11:19:22;17.10;;;10.47;;
16387;SDS011;8303;53.446;9.988;2022-10-31T11:21:51;20.43;;;13.33;;
16387;SDS011;8303;53.446;9.988;2022-10-31T11:24:20;20.87;;;14.53;;
16387;SDS011;8303;53.446;9.988;2022-10-31T11:26:50;21.33;;;13.07;;
16387;SDS011;8303;53.446;9.988;2022-10-31T11:29:20;18.98;;;12.07;;
16387;SDS011;8303;53.446;9.988;2022-10-31T11:31:50;18.38;;;12.02;;
16387;SDS011;8303;53.446;9.988;2022-10-31T11:34:23;20.58;;;12.15;;
16387;SDS011;8303;53.446;9.988;2022-10-31T11:37:02;19.17;;;10.50;;
16387;SDS011;8303;53.446;9.988;2022-10-31T11:39:38;15.27;;;10.10;;
16387;SDS011;8303;53.446;9.988;2022-10-31T11:42:07;16.00;;;8.37;;
16387;SDS011;8303;53.446;9.988;2022-10-31T11:44:34;16.60;;;9.73;;
16387;SDS011;8303;53.446;9.988;2022-10-31T11:47:02;21.80;;;10.30;;
16387;SDS011;8303;53.446;9.988;2022-10-31T11:49:31;16.43;;;9.73;;
16387;SDS011;8303;53.446;9.988;2022-10-31T11:52:01;15.97;;;9.47;;
16387;SDS011;8303;53.446;9.988;2022-10-31T11:54:32;13.97;;;8.80;;
16387;SDS011;8303;53.446;9.988;2022-10-31T11:57:04;16.17;;;9.13;;
16387;SDS011;8303;53.446;9.988;2022-10-31T12:01:59;13.50;;;9.23;;
16387;SDS011;8303;53.446;9.988;2022-10-31T12:04:29;12.90;;;8.77;;
16387;SDS011;8303;53.446;9.988;2022-10-31T12:07:04;12.73;;;8.87;;
16387;SDS011;8303;53.446;9.988;2022-10-31T12:09:32;14.93;;;9.23;;
16387;SDS011;8303;53.446;9.988;2022-10-31T12:12:13;12.83;;;8.37;;
16387;SDS011;8303;53.446;9.988;2022-10-31T12:15:17;16.47;;;8.60;;
16387;SDS011;8303;53.446;9.988;2022-10-31T12:18:02;14.53;;;9.03;;
16387;SDS011;8303;53.446;9.988;2022-10-31T12:20:46;15.83;;;9.07;;
16387;SDS011;8303;53.446;9.988;2022-10-31T12:23:23;13.60;;;8.87;;
16387;SDS011;8303;53.446;9.988;2022-10-31T12:25:56;15.85;;;10.15;;
16387;SDS011;8303;53.446;9.988;2022-10-31T12:28:35;16.67;;;10.37;;
16387;SDS011;8303;53.446;9.988;2022-10-31T12:31:14;13.47;;;8.47;;
16387;SDS011;8303;53.446;9.988;2022-10-31T12:33:55;12.55;;;9.55;;
16387;SDS011;8303;53.446;9.988;2022-10-31T12:36:34;11.13;;;8.33;;
16387;SDS011;8303;53.446;9.988;2022-10-31T12:42:02;11.50;;;7.93;;
16387;SDS011;8303;53.446;9.988;2022-10-31T12:47:46;11.70;;;8.30;;
16387;SDS011;8303;53.446;9.988;2022-10-31T12:50:29;12.75;;;8.10;;
16387;SDS011;8303;53.446;9.988;2022-10-31T12:53:10;12.25;;;8.45;;
16387;SDS011;8303;53.446;9.988;2022-10-31T12:55:48;11.15;;;7.88;;
16387;SDS011;8303;53.446;9.988;2022-10-31T12:58:24;14.75;;;8.43;;
16387;SDS011;8303;53.446;9.988;2022-10-31T13:01:05;16.20;;;8.50;;
16387;SDS011;8303;53.446;9.988;2022-10-31T13:03:37;15.52;;;8.75;;
16387;SDS011;8303;53.446;9.988;2022-10-31T13:06:12;13.52;;;7.95;;
16387;SDS011;8303;53.446;9.988;2022-10-31T13:08:44;13.77;;;8.47;;
16387;SDS011;8303;53.446;9.988;2022-10-31T13:11:15;10.57;;;7.93;;
16387;SDS011;8303;53.446;9.988;2022-10-31T13:13:47;16.23;;;10.07;;
16387;SDS011;8303;53.446;9.988;2022-10-31T13:16:24;19.37;;;10.10;;
16387;SDS011;8303;53.446;9.988;2022-10-31T13:18:55;19.33;;;10.63;;
16387;SDS011;8303;53.446;9.988;2022-10-31T13:21:27;18.90;;;11.60;;
16387;SDS011;8303;53.446;9.988;2022-10-31T13:24:03;18.83;;;11.33;;
16387;SDS011;8303;53.446;9.988;2022-10-31T13:26:35;16.80;;;11.17;;
16387;SDS011;8303;53.446;9.988;2022-10-31T13:29:07;20.27;;;11.93;;
16387;SDS011;8303;53.446;9.988;2022-10-31T13:31:42;19.83;;;11.50;;
16387;SDS011;8303;53.446;9.988;2022-10-31T13:34:12;16.40;;;11.88;;
16387;SDS011;8303;53.446;9.988;2022-10-31T13:36:48;28.47;;;11.60;;
16387;SDS011;8303;53.446;9.988;2022-10-31T13:39:24;17.10;;;12.03;;
16387;SDS011;8303;53.446;9.988;2022-10-31T13:41:59;21.63;;;12.47;;
16387;SDS011;8303;53.446;9.988;2022-10-31T13:44:29;20.57;;;10.83;;
16387;SDS011;8303;53.446;9.988;2022-10-31T13:47:03;16.70;;;11.10;;
16387;SDS011;8303;53.446;9.988;2022-10-31T13:49:51;16.03;;;11.17;;
16387;SDS011;8303;53.446;9.988;2022-10-31T13:52:28;19.20;;;10.60;;
16387;SDS011;8303;53.446;9.988;2022-10-31T13:54:55;16.63;;;10.87;;
16387;SDS011;8303;53.446;9.988;2022-10-31T13:57:26;18.07;;;10.43;;
16387;SDS011;8303;53.446;9.988;2022-10-31T13:59:58;17.33;;;10.23;;
16387;SDS011;8303;53.446;9.988;2022-10-31T14:02:29;13.20;;;9.53;;
16387;SDS011;8303;53.446;9.988;2022-10-31T14:04:58;16.47;;;11.40;;
16387;SDS011;8303;53.446;9.988;2022-10-31T14:07:26;16.00;;;10.77;;
16387;SDS011;8303;53.446;9.988;2022-10-31T14:09:56;18.33;;;10.10;;
16387;SDS011;8303;53.446;9.988;2022-10-31T14:12:27;17.97;;;10.93;;
16387;SDS011;8303;53.446;9.988;2022-10-31T14:14:58;20.00;;;10.27;;
16387;SDS011;8303;53.446;9.988;2022-10-31T14:17:33;15.90;;;9.73;;
16387;SDS011;8303;53.446;9.988;2022-10-31T14:23:10;16.07;;;9.50;;
16387;SDS011;8303;53.446;9.988;2022-10-31T14:25:40;20.07;;;9.83;;
16387;SDS011;8303;53.446;9.988;2022-10-31T14:28:18;22.23;;;10.60;;
16387;SDS011;8303;53.446;9.988;2022-10-31T14:30:51;18.70;;;10.77;;
16387;SDS011;8303;53.446;9.988;2022-10-31T14:33:20;20.00;;;10.93;;
16387;SDS011;8303;53.446;9.988;2022-10-31T14:35:51;20.77;;;11.80;;
16387;SDS011;8303;53.446;9.988;2022-10-31T14:38:44;21.13;;;11.10;;
16387;SDS011;8303;53.446;9.988;2022-10-31T14:41:36;22.13;;;13.17;;
16387;SDS011;8303;53.446;9.988;2022-10-31T14:44:20;20.67;;;12.37;;
16387;SDS011;8303;53.446;9.988;2022-10-31T14:47:05;24.17;;;13.97;;
16387;SDS011;8303;53.446;9.988;2022-10-31T14:49:56;25.63;;;13.93;;
16387;SDS011;8303;53.446;9.988;2022-10-31T14:52:43;25.13;;;14.87;;
16387;SDS011;8303;53.446;9.988;2022-10-31T14:55:15;29.57;;;15.47;;
16387;SDS011;8303;53.446;9.988;2022-10-31T14:57:45;26.60;;;15.03;;
16387;SDS011;8303;53.446;9.988;2022-10-31T15:00:16;27.50;;;15.50;;
16387;SDS011;8303;53.446;9.988;2022-10-31T15:02:46;29.27;;;16.27;;
16387;SDS011;8303;53.446;9.988;2022-10-31T15:05:23;29.73;;;15.00;;
16387;SDS011;8303;53.446;9.988;2022-10-31T15:07:53;30.47;;;17.10;;
16387;SDS011;8303;53.446;9.988;2022-10-31T15:10:22;27.03;;;15.33;;
16387;SDS011;8303;53.446;9.988;2022-10-31T15:12:50;32.53;;;16.90;;
16387;SDS011;8303;53.446;9.988;2022-10-31T15:15:18;33.63;;;17.50;;
16387;SDS011;8303;53.446;9.988;2022-10-31T15:17:48;32.67;;;17.13;;
16387;SDS011;8303;53.446;9.988;2022-10-31T15:20:17;40.07;;;17.43;;
16387;SDS011;8303;53.446;9.988;2022-10-31T15:22:47;36.17;;;18.50;;
16387;SDS011;8303;53.446;9.988;2022-10-31T15:25:16;37.93;;;18.57;;
16387;SDS011;8303;53.446;9.988;2022-10-31T15:27:45;37.67;;;18.17;;
16387;SDS011;8303;53.446;9.988;2022-10-31T15:30:17;38.20;;;18.73;;
16387;SDS011;8303;53.446;9.988;2022-10-31T15:32:46;35.47;;;17.33;;
16387;SDS011;8303;53.446;9.988;2022-10-31T15:35:19;34.10;;;18.30;;
16387;SDS011;8303;53.446;9.988;2022-10-31T15:37:49;37.07;;;18.60;;
16387;SDS011;8303;53.446;9.988;2022-10-31T15:40:17;37.57;;;20.37;;
16387;SDS011;8303;53.446;9.988;2022-10-31T15:42:47;31.70;;;18.37;;
16387;SDS011;8303;53.446;9.988;2022-10-31T15:45:18;37.97;;;19.83;;
16387;SDS011;8303;53.446;9.988;2022-10-31T15:47:49;38.97;;;19.20;;
16387;SDS011;8303;53.446;9.988;2022-10-31T15:50:22;41.83;;;20.50;;
16387;SDS011;8303;53.446;9.988;2022-10-31T15:52:54;37.43;;;21.43;;
16387;SDS011;8303;53.446;9.988;2022-10-31T15:55:22;41.40;;;20.70;;
16387;SDS011;8303;53.446;9.988;2022-10-31T15:57:53;32.77;;;17.90;;
16387;SDS011;8303;53.446;9.988;2022-10-31T16:00:23;38.87;;;18.17;;
16387;SDS011;8303;53.446;9.988;2022-10-31T16:03:02;36.17;;;18.77;;
16387;SDS011;8303;53.446;9.988;2022-10-31T16:05:34;39.83;;;18.77;;
16387;SDS011;8303;53.446;9.988;2022-10-31T16:08:04;40.23;;;18.83;;
16387;SDS011;8303;53.446;9.988;2022-10-31T16:10:32;32.00;;;18.13;;
16387;SDS011;8303;53.446;9.988;2022-10-31T16:13:01;42.10;;;19.50;;
16387;SDS011;8303;53.446;9.988;2022-10-31T16:15:28;41.60;;;21.57;;
16387;SDS011;8303;53.446;9.988;2022-10-31T16:17:56;41.10;;;20.37;;
16387;SDS011;8303;53.446;9.988;2022-10-31T16:20:25;36.43;;;19.17;;
16387;SDS011;8303;53.446;9.988;2022-10-31T16:22:54;37.53;;;18.97;;
16387;SDS011;8303;53.446;9.988;2022-10-31T16:25:25;38.37;;;17.20;;
16387;SDS011;8303;53.446;9.988;2022-10-31T16:27:55;35.07;;;17.30;;
16387;SDS011;8303;53.446;9.988;2022-10-31T16:30:29;37.87;;;17.33;;
16387;SDS011;8303;53.446;9.988;2022-10-31T16:33:01;33.03;;;16.43;;
16387;SDS011;8303;53.446;9.988;2022-10-31T16:35:31;36.03;;;18.10;;
16387;SDS011;8303;53.446;9.988;2022-10-31T16:37:59;38.70;;;17.67;;
16387;SDS011;8303;53.446;9.988;2022-10-31T16:40:27;36.70;;;18.43;;
16387;SDS011;8303;53.446;9.988;2022-10-31T16:42:56;36.10;;;16.57;;
16387;SDS011;8303;53.446;9.988;2022-10-31T16:45:24;34.50;;;17.80;;
16387;SDS011;8303;53.446;9.988;2022-10-31T16:47:52;37.70;;;18.23;;
16387;SDS011;8303;53.446;9.988;2022-10-31T16:50:20;39.37;;;17.37;;
16387;SDS011;8303;53.446;9.988;2022-10-31T16:52:48;37.20;;;18.27;;
16387;SDS011;8303;53.446;9.988;2022-10-31T16:55:18;39.27;;;19.17;;
16387;SDS011;8303;53.446;9.988;2022-10-31T16:57:48;39.07;;;20.67;;
16387;SDS011;8303;53.446;9.988;2022-10-31T17:00:17;49.60;;;28.17;;
16387;SDS011;8303;53.446;9.988;2022-10-31T17:02:45;42.83;;;19.87;;
16387;SDS011;8303;53.446;9.988;2022-10-31T17:05:15;48.83;;;26.73;;
16387;SDS011;8303;53.446;9.988;2022-10-31T17:07:43;37.30;;;20.63;;
16387;SDS011;8303;53.446;9.988;2022-10-31T17:10:10;43.83;;;19.97;;
16387;SDS011;8303;53.446;9.988;2022-10-31T17:12:40;33.13;;;18.87;;
16387;SDS011;8303;53.446;9.988;2022-10-31T17:15:13;34.80;;;19.60;;
16387;SDS011;8303;53.446;9.988;2022-10-31T17:17:42;38.17;;;20.07;;
16387;SDS011;8303;53.446;9.988;2022-10-31T17:20:12;43.60;;;20.40;;
16387;SDS011;8303;53.446;9.988;2022-10-31T17:22:44;33.90;;;19.63;;
16387;SDS011;8303;53.446;9.988;2022-10-31T17:25:12;35.03;;;19.00;;
16387;SDS011;8303;53.446;9.988;2022-10-31T17:27:41;46.30;;;21.43;;
16387;SDS011;8303;53.446;9.988;2022-10-31T17:30:09;37.50;;;19.47;;
16387;SDS011;8303;53.446;9.988;2022-10-31T17:32:39;43.23;;;20.73;;
16387;SDS011;8303;53.446;9.988;2022-10-31T17:35:06;38.43;;;19.97;;
16387;SDS011;8303;53.446;9.988;2022-10-31T17:37:34;39.10;;;19.77;;
16387;SDS011;8303;53.446;9.988;2022-10-31T17:40:01;36.20;;;18.67;;
16387;SDS011;8303;53.446;9.988;2022-10-31T17:42:28;36.97;;;19.57;;
16387;SDS011;8303;53.446;9.988;2022-10-31T17:44:55;43.83;;;19.60;;
16387;SDS011;8303;53.446;9.988;2022-10-31T17:47:23;47.90;;;22.37;;
16387;SDS011;8303;53.446;9.988;2022-10-31T17:49:50;46.13;;;20.07;;
16387;SDS011;8303;53.446;9.988;2022-10-31T17:52:17;41.20;;;19.67;;
16387;SDS011;8303;53.446;9.988;2022-10-31T17:54:45;41.87;;;21.03;;
16387;SDS011;8303;53.446;9.988;2022-10-31T17:57:11;44.37;;;21.07;;
16387;SDS011;8303;53.446;9.988;2022-10-31T18:02:09;42.77;;;21.20;;
16387;SDS011;8303;53.446;9.988;2022-10-31T18:04:38;45.40;;;21.47;;
16387;SDS011;8303;53.446;9.988;2022-10-31T18:07:05;50.50;;;22.47;;
16387;SDS011;8303;53.446;9.988;2022-10-31T18:09:32;45.30;;;21.83;;
16387;SDS011;8303;53.446;9.988;2022-10-31T18:11:59;41.97;;;21.83;;
16387;SDS011;8303;53.446;9.988;2022-10-31T18:14:26;48.03;;;21.97;;
16387;SDS011;8303;53.446;9.988;2022-10-31T18:16:53;43.73;;;20.83;;
16387;SDS011;8303;53.446;9.988;2022-10-31T18:19:20;35.97;;;18.87;;
16387;SDS011;8303;53.446;9.988;2022-10-31T18:21:48;42.80;;;21.00;;
16387;SDS011;8303;53.446;9.988;2022-10-31T18:24:15;46.87;;;20.53;;
16387;SDS011;8303;53.446;9.988;2022-10-31T18:26:42;47.50;;;20.70;;
16387;SDS011;8303;53.446;9.988;2022-10-31T18:29:08;38.67;;;18.63;;
16387;SDS011;8303;53.446;9.988;2022-10-31T18:31:36;55.73;;;21.47;;
16387;SDS011;8303;53.446;9.988;2022-10-31T18:34:03;44.73;;;21.10;;
16387;SDS011;8303;53.446;9.988;2022-10-31T18:36:30;53.07;;;23.30;;
16387;SDS011;8303;53.446;9.988;2022-10-31T18:38:59;45.50;;;20.33;;
16387;SDS011;8303;53.446;9.988;2022-10-31T18:41:27;43.93;;;20.53;;
16387;SDS011;8303;53.446;9.988;2022-10-31T18:43:55;46.70;;;21.87;;
16387;SDS011;8303;53.446;9.988;2022-10-31T18:46:23;43.27;;;20.80;;
16387;SDS011;8303;53.446;9.988;2022-10-31T18:48:51;55.13;;;22.33;;
16387;SDS011;8303;53.446;9.988;2022-10-31T18:51:18;45.03;;;20.47;;
16387;SDS011;8303;53.446;9.988;2022-10-31T18:53:48;47.90;;;21.07;;
16387;SDS011;8303;53.446;9.988;2022-10-31T18:56:17;49.43;;;22.37;;
16387;SDS011;8303;53.446;9.988;2022-10-31T18:58:44;51.23;;;21.03;;
16387;SDS011;8303;53.446;9.988;2022-10-31T19:01:11;50.93;;;21.87;;
16387;SDS011;8303;53.446;9.988;2022-10-31T19:03:39;51.93;;;23.07;;
16387;SDS011;8303;53.446;9.988;2022-10-31T19:06:07;51.80;;;22.60;;
16387;SDS011;8303;53.446;9.988;2022-10-31T19:08:35;51.63;;;21.70;;
16387;SDS011;8303;53.446;9.988;2022-10-31T19:11:03;48.13;;;21.53;;
16387;SDS011;8303;53.446;9.988;2022-10-31T19:13:32;46.50;;;21.23;;
16387;SDS011;8303;53.446;9.988;2022-10-31T19:16:03;58.23;;;22.57;;
16387;SDS011;8303;53.446;9.988;2022-10-31T19:18:30;47.70;;;21.33;;
16387;SDS011;8303;53.446;9.988;2022-10-31T19:20:58;47.80;;;21.10;;
16387;SDS011;8303;53.446;9.988;2022-10-31T19:23:25;53.97;;;19.90;;
16387;SDS011;8303;53.446;9.988;2022-10-31T19:25:51;47.13;;;20.93;;
16387;SDS011;8303;53.446;9.988;2022-10-31T19:28:22;46.77;;;21.30;;
16387;SDS011;8303;53.446;9.988;2022-10-31T19:30:54;56.13;;;22.50;;
16387;SDS011;8303;53.446;9.988;2022-10-31T19:33:21;48.83;;;21.70;;
16387;SDS011;8303;53.446;9.988;2022-10-31T19:35:50;56.57;;;22.67;;
16387;SDS011;8303;53.446;9.988;2022-10-31T19:38:18;52.60;;;22.57;;
16387;SDS011;8303;53.446;9.988;2022-10-31T19:40:44;55.03;;;23.60;;
16387;SDS011;8303;53.446;9.988;2022-10-31T19:43:11;58.67;;;22.90;;
16387;SDS011;8303;53.446;9.988;2022-10-31T19:45:38;54.20;;;23.20;;
16387;SDS011;8303;53.446;9.988;2022-10-31T19:48:06;59.33;;;22.33;;
16387;SDS011;8303;53.446;9.988;2022-10-31T19:50:33;55.03;;;20.83;;
16387;SDS011;8303;53.446;9.988;2022-10-31T19:53:00;62.13;;;24.93;;
16387;SDS011;8303;53.446;9.988;2022-10-31T19:55:26;55.23;;;23.97;;
16387;SDS011;8303;53.446;9.988;2022-10-31T19:57:53;59.27;;;24.30;;
16387;SDS011;8303;53.446;9.988;2022-10-31T20:00:20;55.20;;;22.93;;
16387;SDS011;8303;53.446;9.988;2022-10-31T20:02:47;65.40;;;24.67;;
16387;SDS011;8303;53.446;9.988;2022-10-31T20:05:15;63.40;;;22.90;;
16387;SDS011;8303;53.446;9.988;2022-10-31T20:07:41;67.67;;;25.67;;
16387;SDS011;8303;53.446;9.988;2022-10-31T20:10:08;60.60;;;24.60;;
16387;SDS011;8303;53.446;9.988;2022-10-31T20:12:35;63.60;;;24.67;;
16387;SDS011;8303;53.446;9.988;2022-10-31T20:15:02;61.70;;;24.83;;
16387;SDS011;8303;53.446;9.988;2022-10-31T20:17:30;70.47;;;27.00;;
16387;SDS011;8303;53.446;9.988;2022-10-31T20:19:56;63.77;;;25.93;;
16387;SDS011;8303;53.446;9.988;2022-10-31T20:22:25;64.20;;;24.20;;
16387;SDS011;8303;53.446;9.988;2022-10-31T20:24:51;71.50;;;27.00;;
16387;SDS011;8303;53.446;9.988;2022-10-31T20:27:18;59.83;;;25.17;;
16387;SDS011;8303;53.446;9.988;2022-10-31T20:29:45;66.87;;;25.13;;
16387;SDS011;8303;53.446;9.988;2022-10-31T20:32:12;69.30;;;25.90;;
16387;SDS011;8303;53.446;9.988;2022-10-31T20:34:39;69.70;;;27.23;;
16387;SDS011;8303;53.446;9.988;2022-10-31T20:37:06;71.53;;;27.07;;
16387;SDS011;8303;53.446;9.988;2022-10-31T20:39:34;63.73;;;26.40;;
16387;SDS011;8303;53.446;9.988;2022-10-31T20:42:01;61.67;;;25.10;;
16387;SDS011;8303;53.446;9.988;2022-10-31T20:44:28;67.97;;;25.37;;
16387;SDS011;8303;53.446;9.988;2022-10-31T20:46:55;69.37;;;26.80;;
16387;SDS011;8303;53.446;9.988;2022-10-31T20:49:22;66.77;;;25.37;;
16387;SDS011;8303;53.446;9.988;2022-10-31T20:51:48;67.70;;;24.70;;
16387;SDS011;8303;53.446;9.988;2022-10-31T20:54:15;65.93;;;25.83;;
16387;SDS011;8303;53.446;9.988;2022-10-31T20:56:45;71.07;;;26.87;;